Terminal Aerodrome Forecast
Issued by NWS

Home | Current Version | Previous Version | Graphics & Text | Print | Product List | Glossary On
Versions: 1 2 3 4 5 6 7 8 9 10 11 12 13 14
333
FTUS43 KMPX 081740
TAFRWF
TAF
KRWF 081740Z 0818/0918 28012KT P6SM BKN100
     FM082300 29014KT P6SM SCT020 OVC040
     FM090300 32023G36KT P6SM BKN025 OVC050
     FM090700 32016G24KT P6SM BKN025
     FM091200 32013KT P6SM BKN030=

USA.gov is the U.S. government's official web portal to all federal, state and local government web resources and services.